Time;durP1;ratioP1;P1;durP2;ratioP2;P2;SDS_P1;SDS_P2;PMS_P1;PMS_P2;Temp;Humidity;BMP_temperature;BMP_pressure;BME280_temperature;BME280_humidity;BME280_pressure;Samples;Min_cycle;Max_cycle;Signal;HPM_P1;HPM_P2
2021/09/11 00:02:11;;;;;;;8.68;7.35;;;;;;;20.92;100.00;98045.22;5055099;28;20211;-72
2021/09/11 00:04:39;;;;;;;8.85;6.93;;;;;;;20.87;100.00;98050.47;5070379;28;20255;-73
2021/09/11 00:07:05;;;;;;;7.93;6.78;;;;;;;20.89;100.00;98048.06;5053502;28;20202;-74
2021/09/11 00:09:32;;;;;;;9.38;7.05;;;;;;;20.86;100.00;98057.25;5055570;28;20605;-74
2021/09/11 00:11:58;;;;;;;8.82;6.97;;;;;;;20.86;100.00;98046.03;5057358;28;20517;-73
2021/09/11 00:14:25;;;;;;;10.57;6.40;;;;;;;20.90;100.00;98050.44;5054129;28;20645;-73
2021/09/11 00:16:51;;;;;;;7.95;6.78;;;;;;;20.90;100.00;98046.84;5056382;28;20213;-73
2021/09/11 00:19:18;;;;;;;9.82;6.28;;;;;;;20.82;100.00;98050.88;5056513;28;20226;-74
2021/09/11 00:21:44;;;;;;;9.90;8.00;;;;;;;20.80;100.00;98053.31;5055420;28;20300;-73
2021/09/11 00:24:11;;;;;;;8.88;7.05;;;;;;;20.84;100.00;98054.06;5052752;28;20233;-74
2021/09/11 00:26:38;;;;;;;11.38;7.05;;;;;;;20.79;100.00;98060.09;5052706;28;20708;-73
2021/09/11 00:29:05;;;;;;;12.38;6.38;;;;;;;20.84;100.00;98054.06;5062801;28;20308;-72
2021/09/11 00:31:31;;;;;;;7.35;6.43;;;;;;;20.76;100.00;98053.31;5071441;28;20716;-74
2021/09/11 00:33:58;;;;;;;6.22;5.57;;;;;;;20.75;100.00;98053.69;5071936;28;20763;-73
2021/09/11 00:36:24;;;;;;;8.52;6.43;;;;;;;20.79;100.00;98052.50;5072375;28;20201;-72
2021/09/11 00:38:51;;;;;;;8.18;6.63;;;;;;;20.81;100.00;98054.88;5075661;28;20297;-74
2021/09/11 00:41:17;;;;;;;9.40;7.45;;;;;;;20.83;100.00;98042.06;5074701;28;20293;-74
2021/09/11 00:43:47;;;;;;;7.22;6.38;;;;;;;20.79;100.00;98048.88;5071836;28;20227;-74
2021/09/11 00:46:14;;;;;;;8.70;6.63;;;;;;;20.77;100.00;98054.91;5072355;28;20271;-73
2021/09/11 00:48:42;;;;;;;8.40;6.20;;;;;;;20.73;100.00;98050.53;5072469;28;20681;-74
2021/09/11 00:51:10;;;;;;;7.68;6.15;;;;;;;20.71;100.00;98062.13;5071416;28;20212;-73
2021/09/11 00:53:38;;;;;;;8.13;6.68;;;;;;;20.66;100.00;98064.53;5071860;28;20228;-73
2021/09/11 00:56:05;;;;;;;8.77;6.60;;;;;;;20.61;100.00;98064.97;5071583;28;20654;-74
2021/09/11 00:58:32;;;;;;;9.55;6.60;;;;;;;20.60;100.00;98057.78;5073852;28;20204;-73
2021/09/11 01:34:30;;;;;;;9.93;7.47;;;;;;;20.18;100.00;98107.09;5109710;27;20500;-72
2021/09/11 01:36:57;;;;;;;10.40;7.57;;;;;;;20.24;100.00;98098.31;5109530;28;20210;-75
2021/09/11 01:39:23;;;;;;;10.20;7.78;;;;;;;20.22;100.00;98100.72;5109559;27;20207;-75
2021/09/11 01:41:50;;;;;;;9.20;7.15;;;;;;;20.13;100.00;98104.69;5109374;28;20204;-73
2021/09/11 01:44:16;;;;;;;10.75;7.40;;;;;;;19.90;100.00;98101.47;5108679;28;20605;-73
2021/09/11 01:46:42;;;;;;;9.60;7.00;;;;;;;19.83;100.00;98107.09;5107743;28;20214;-73
2021/09/11 01:49:09;;;;;;;9.30;7.45;;;;;;;19.93;100.00;98111.88;5109542;28;20222;-73
2021/09/11 01:51:45;;;;;;;10.80;7.68;;;;;;;19.87;100.00;98107.88;5109635;28;20723;-73
2021/09/11 01:54:11;;;;;;;12.82;7.13;;;;;;;19.94;100.00;98115.50;5108865;28;20242;-74
2021/09/11 01:56:38;;;;;;;10.98;7.57;;;;;;;19.98;100.00;98107.91;5108618;28;20286;-73
2021/09/11 01:59:04;;;;;;;9.27;6.93;;;;;;;20.08;100.00;98105.09;5111659;28;20298;-73
2021/09/11 02:01:31;;;;;;;8.90;6.88;;;;;;;20.34;100.00;98108.69;5114888;28;20243;-73
2021/09/11 02:03:57;;;;;;;9.10;6.80;;;;;;;20.42;100.00;98093.47;5109354;28;20219;-73
2021/09/11 02:06:26;;;;;;;8.48;5.93;;;;;;;20.30;100.00;98100.28;5091258;28;20197;-72
2021/09/11 02:08:53;;;;;;;8.32;7.25;;;;;;;20.42;100.00;98101.88;5088568;28;20313;-74
2021/09/11 02:11:19;;;;;;;10.23;7.15;;;;;;;20.54;100.00;98101.44;5088345;28;20532;-73
2021/09/11 02:13:46;;;;;;;9.60;7.15;;;;;;;20.62;100.00;98103.81;5088408;28;20773;-73
2021/09/11 02:16:12;;;;;;;9.27;6.78;;;;;;;20.59;100.00;98112.25;5088377;28;20255;-74
2021/09/11 02:18:39;;;;;;;7.60;6.10;;;;;;;20.64;100.00;98117.44;5088701;28;20247;-73
2021/09/11 02:21:05;;;;;;;11.95;7.60;;;;;;;20.58;100.00;98124.69;5088527;28;20208;-73
2021/09/11 02:23:32;;;;;;;9.40;7.22;;;;;;;20.48;100.00;98137.50;5088061;28;20207;-73
2021/09/11 02:25:58;;;;;;;10.00;6.93;;;;;;;20.37;100.00;98141.53;5087717;28;20215;-73
2021/09/11 02:28:24;;;;;;;9.35;7.45;;;;;;;20.22;100.00;98145.56;5107243;28;20211;-73
2021/09/11 02:30:51;;;;;;;10.10;6.13;;;;;;;20.28;100.00;98138.31;5108573;28;20212;-73
2021/09/11 02:33:17;;;;;;;8.35;6.53;;;;;;;20.39;100.00;98153.94;5107837;28;20311;-73
2021/09/11 02:35:44;;;;;;;7.80;6.57;;;;;;;20.42;100.00;98141.91;5107985;28;20225;-73
2021/09/11 02:38:10;;;;;;;8.32;6.90;;;;;;;20.44;100.00;98141.50;5107074;28;20557;-73
2021/09/11 02:40:37;;;;;;;8.02;7.03;;;;;;;20.42;100.00;98138.34;5108105;28;20620;-73
2021/09/11 02:43:03;;;;;;;8.32;6.72;;;;;;;20.41;100.00;98126.31;5107988;28;20665;-73
2021/09/11 02:45:30;;;;;;;8.85;5.93;;;;;;;20.37;100.00;98130.31;5095996;28;20735;-74
2021/09/11 02:47:56;;;;;;;9.93;7.32;;;;;;;20.37;100.00;98135.91;5094678;28;20210;-73
2021/09/11 02:50:23;;;;;;;8.77;6.55;;;;;;;20.33;100.00;98129.53;5094526;28;20215;-73
2021/09/11 02:52:49;;;;;;;6.78;5.65;;;;;;;20.36;100.00;98137.13;5094289;28;20232;-75
2021/09/11 02:55:16;;;;;;;10.23;7.15;;;;;;;20.38;100.00;98143.13;5093790;28;20282;-74
2021/09/11 02:57:43;;;;;;;7.88;6.60;;;;;;;20.42;100.00;98149.56;5094502;28;20200;-73
2021/09/11 03:00:10;;;;;;;10.02;6.63;;;;;;;20.39;100.00;98156.75;5094309;28;20926;-73
2021/09/11 03:02:36;;;;;;;9.88;6.90;;;;;;;20.34;100.00;98148.75;5094417;28;20222;-73
2021/09/11 03:05:04;;;;;;;8.07;6.20;;;;;;;20.31;100.00;98145.94;5087500;28;20217;-73
2021/09/11 03:07:31;;;;;;;10.05;6.90;;;;;;;20.29;100.00;98151.16;5073769;28;20288;-73
2021/09/11 03:09:57;;;;;;;8.57;6.35;;;;;;;20.30;100.00;98144.34;5073820;28;20658;-73
2021/09/11 03:12:24;;;;;;;8.63;6.57;;;;;;;20.25;100.00;98145.56;5073978;28;20211;-75
2021/09/11 03:14:50;;;;;;;10.77;6.72;;;;;;;20.11;100.00;98140.69;5073249;28;20328;-75
2021/09/11 03:17:16;;;;;;;7.28;6.35;;;;;;;20.12;100.00;98142.31;5074064;28;20209;-75
2021/09/11 03:19:43;;;;;;;8.80;6.65;;;;;;;20.16;100.00;98140.28;5073884;28;20207;-75
2021/09/11 03:22:09;;;;;;;8.57;7.07;;;;;;;20.17;100.00;98141.13;5073588;28;20219;-75
2021/09/11 03:24:36;;;;;;;8.85;6.82;;;;;;;20.16;100.00;98140.28;5073409;28;20304;-75
2021/09/11 03:27:03;;;;;;;12.27;7.10;;;;;;;20.22;100.00;98134.34;5073453;28;20227;-75
2021/09/11 03:29:29;;;;;;;10.43;7.53;;;;;;;20.23;100.00;98133.13;5086853;28;20211;-74
2021/09/11 03:31:56;;;;;;;9.98;7.45;;;;;;;20.26;100.00;98123.91;5094009;28;20201;-75
2021/09/11 03:34:22;;;;;;;11.82;7.90;;;;;;;20.15;100.00;98127.50;5092948;28;20238;-75
2021/09/11 03:36:49;;;;;;;11.57;7.20;;;;;;;20.10;100.00;98122.31;5093298;28;20208;-75
2021/09/11 03:39:15;;;;;;;9.10;7.35;;;;;;;20.02;100.00;98129.09;5093754;28;20211;-75
2021/09/11 03:41:42;;;;;;;9.73;7.32;;;;;;;19.98;100.00;98128.28;5093766;28;20204;-74
2021/09/11 03:44:09;;;;;;;8.75;7.00;;;;;;;19.95;100.00;98119.88;5091871;28;20223;-75
2021/09/11 03:46:35;;;;;;;9.75;7.50;;;;;;;19.97;100.00;98120.28;5092086;28;20291;-75
2021/09/11 03:49:02;;;;;;;7.57;6.78;;;;;;;20.04;100.00;98117.47;5093367;28;20200;-75
2021/09/11 03:51:30;;;;;;;9.35;6.63;;;;;;;19.95;100.00;98119.88;5093284;28;20219;-75
2021/09/11 03:53:56;;;;;;;8.57;6.75;;;;;;;19.88;100.00;98108.66;5092881;28;20232;-75
2021/09/11 03:56:23;;;;;;;8.15;6.82;;;;;;;19.82;100.00;98116.66;5090755;28;20223;-75
2021/09/11 03:58:49;;;;;;;8.98;6.95;;;;;;;19.79;100.00;98113.88;5093271;28;20287;-74
2021/09/11 04:01:16;;;;;;;8.05;6.85;;;;;;;19.74;100.00;98112.25;5093188;28;20208;-76
2021/09/11 04:03:42;;;;;;;9.73;6.88;;;;;;;19.65;100.00;98119.47;5092528;28;20644;-74
2021/09/11 04:06:10;;;;;;;9.70;7.95;;;;;;;19.70;100.00;98117.06;5077740;28;20252;-74
2021/09/11 04:08:37;;;;;;;10.80;7.93;;;;;;;19.60;100.00;98126.22;5071729;28;20213;-75
2021/09/11 04:11:03;;;;;;;10.23;7.63;;;;;;;19.59;100.00;98132.25;5072824;28;20211;-77
2021/09/11 04:13:30;;;;;;;8.82;6.97;;;;;;;19.75;100.00;98139.06;5072304;28;20221;-74
2021/09/11 04:15:56;;;;;;;8.80;6.97;;;;;;;19.90;100.00;98128.69;5072198;28;20201;-77
2021/09/11 04:18:23;;;;;;;9.20;7.50;;;;;;;19.99;100.00;98132.72;5072491;28;20208;-76
2021/09/11 04:20:49;;;;;;;10.30;7.57;;;;;;;20.04;100.00;98125.88;5072701;28;20212;-75
2021/09/11 04:23:16;;;;;;;9.30;7.65;;;;;;;20.11;100.00;98118.28;5072159;28;20209;-74
2021/09/11 04:25:43;;;;;;;11.13;7.35;;;;;;;20.08;100.00;98118.28;5072010;28;20580;-75
2021/09/11 04:28:10;;;;;;;8.45;7.22;;;;;;;20.03;100.00;98113.91;5074851;28;20208;-72
2021/09/11 04:30:37;;;;;;;9.98;7.40;;;;;;;20.01;100.00;98130.31;5094449;28;20295;-74
2021/09/11 04:33:04;;;;;;;11.73;7.05;;;;;;;20.05;100.00;98125.47;5095187;28;20654;-73
2021/09/11 04:35:31;;;;;;;9.88;6.97;;;;;;;19.91;100.00;98131.09;5094333;28;20232;-74
2021/09/11 04:37:57;;;;;;;7.82;6.75;;;;;;;19.99;100.00;98137.50;5095764;28;20219;-74
2021/09/11 04:40:24;;;;;;;10.65;7.32;;;;;;;20.04;100.00;98134.28;5093548;28;20208;-75
2021/09/11 04:42:50;;;;;;;10.55;6.97;;;;;;;20.08;100.00;98135.91;5094663;28;20228;-73
2021/09/11 04:45:17;;;;;;;11.48;7.13;;;;;;;20.14;100.00;98139.13;5091754;28;20221;-76
2021/09/11 04:47:44;;;;;;;9.90;7.28;;;;;;;20.13;100.00;98143.91;5092738;28;20209;-73
2021/09/11 04:50:10;;;;;;;9.20;7.35;;;;;;;20.21;100.00;98146.75;5083591;28;20196;-74
2021/09/11 04:52:37;;;;;;;9.05;6.53;;;;;;;20.21;100.00;98150.34;5072004;28;20747;-74
2021/09/11 04:55:07;;;;;;;9.02;6.57;;;;;;;20.23;100.00;98147.13;5071814;28;20237;-74
2021/09/11 04:57:35;;;;;;;9.48;7.00;;;;;;;20.17;100.00;98147.56;5088510;28;20205;-75
2021/09/11 05:00:04;;;;;;;7.50;6.47;;;;;;;20.21;100.00;98150.34;5092060;28;20308;-75
2021/09/11 05:02:30;;;;;;;8.23;6.07;;;;;;;20.27;100.00;98159.16;5096007;28;20214;-74
2021/09/11 05:04:57;;;;;;;8.10;6.22;;;;;;;20.31;100.00;98151.56;5097497;28;20213;-75
2021/09/11 05:07:26;;;;;;;7.78;6.25;;;;;;;20.34;100.00;98145.13;5075408;28;20205;-74
2021/09/11 05:09:52;;;;;;;8.45;6.20;;;;;;;20.45;100.00;98151.53;5090941;28;20204;-76
2021/09/11 05:12:19;;;;;;;9.98;6.93;;;;;;;20.47;100.00;98149.13;5092069;28;20274;-74
2021/09/11 05:14:45;;;;;;;6.82;5.90;;;;;;;20.44;100.00;98145.13;5090671;28;20977;-75
2021/09/11 05:17:12;;;;;;;10.93;7.00;;;;;;;20.54;100.00;98146.31;5092016;28;20220;-74
2021/09/11 05:19:39;;;;;;;8.50;6.90;;;;;;;20.53;100.00;98139.13;5091916;28;20232;-75
2021/09/11 05:22:06;;;;;;;7.85;6.57;;;;;;;20.54;100.00;98147.13;5092055;28;20303;-74
2021/09/11 05:24:32;;;;;;;9.48;6.60;;;;;;;20.49;100.00;98141.91;5091469;28;20457;-75
2021/09/11 05:26:59;;;;;;;7.60;6.45;;;;;;;20.54;100.00;98155.53;5091302;28;20205;-73
2021/09/11 05:29:25;;;;;;;8.70;6.38;;;;;;;20.54;100.00;98157.53;5092116;28;20375;-74
2021/09/11 05:31:52;;;;;;;7.78;6.30;;;;;;;20.57;100.00;98159.53;5092391;28;20296;-72
2021/09/11 05:34:19;;;;;;;7.30;5.82;;;;;;;20.55;100.00;98159.94;5096610;28;20228;-71
2021/09/11 05:36:46;;;;;;;9.27;6.18;;;;;;;20.62;100.00;98161.94;5095921;28;20210;-71
2021/09/11 05:39:12;;;;;;;8.43;6.47;;;;;;;20.60;100.00;98167.16;5092495;28;20295;-73
2021/09/11 05:41:39;;;;;;;7.80;5.43;;;;;;;20.63;100.00;98164.34;5092077;28;20208;-70
2021/09/11 05:44:05;;;;;;;7.40;6.13;;;;;;;20.67;100.00;98164.34;5089943;28;20732;-73
2021/09/11 05:46:32;;;;;;;9.05;6.03;;;;;;;20.59;100.00;98163.53;5092347;28;20284;-72
2021/09/11 05:48:58;;;;;;;8.05;6.40;;;;;;;20.62;100.00;98170.34;5092484;28;20250;-74
2021/09/11 05:51:25;;;;;;;8.93;6.47;;;;;;;20.54;100.00;98163.16;5093948;28;20205;-72
2021/09/11 05:53:51;;;;;;;7.95;5.63;;;;;;;20.55;100.00;98171.16;5092711;28;20239;-71
2021/09/11 05:56:18;;;;;;;7.88;6.47;;;;;;;20.53;100.00;98176.34;5091206;28;20295;-73
2021/09/11 05:58:44;;;;;;;7.28;6.00;;;;;;;20.47;100.00;98185.59;5091833;28;20756;-70
2021/09/11 06:01:11;;;;;;;12.73;6.63;;;;;;;20.46;100.00;98189.56;5093021;28;20218;-73
2021/09/11 06:03:38;;;;;;;8.45;6.05;;;;;;;20.52;100.00;98187.97;5095409;28;20654;-73
2021/09/11 06:06:06;;;;;;;7.03;5.95;;;;;;;20.53;100.00;98184.00;5080766;28;20201;-74
2021/09/11 06:08:32;;;;;;;7.35;6.25;;;;;;;20.52;100.00;98190.78;5071990;28;20202;-74
2021/09/11 06:10:59;;;;;;;10.10;6.53;;;;;;;20.37;100.00;98189.19;5069221;28;20201;-73
2021/09/11 06:13:25;;;;;;;6.47;5.65;;;;;;;20.38;100.00;98194.41;5070276;28;20201;-75
2021/09/11 06:15:51;;;;;;;10.10;6.15;;;;;;;20.52;100.00;98194.41;5070664;28;20209;-75
2021/09/11 06:18:18;;;;;;;7.72;6.07;;;;;;;20.49;100.00;98195.19;5071354;28;20215;-75
2021/09/11 06:20:44;;;;;;;8.57;6.85;;;;;;;20.53;100.00;98196.00;5073551;28;20643;-74
2021/09/11 06:23:11;;;;;;;6.55;5.68;;;;;;;20.51;100.00;98194.81;5073948;28;20351;-73
2021/09/11 06:25:37;;;;;;;7.57;6.18;;;;;;;20.60;100.00;98198.00;5074384;28;20221;-75
2021/09/11 06:28:04;;;;;;;8.50;6.22;;;;;;;20.64;100.00;98193.16;5076407;28;20205;-75
2021/09/11 06:30:31;;;;;;;8.60;6.78;;;;;;;20.49;100.00;98191.59;5094942;28;20653;-73
2021/09/11 06:32:57;;;;;;;7.30;6.13;;;;;;;20.57;100.00;98201.59;5095479;28;20208;-74
2021/09/11 06:35:26;;;;;;;8.88;6.10;;;;;;;20.64;100.00;98207.19;5093723;28;20256;-75
2021/09/11 06:37:53;;;;;;;8.23;6.32;;;;;;;20.34;100.00;98218.84;5095133;28;20214;-74
2021/09/11 06:40:20;;;;;;;8.30;6.57;;;;;;;20.45;100.00;98221.63;5093254;28;20208;-74
2021/09/11 06:42:47;;;;;;;9.00;5.78;;;;;;;20.32;100.00;98223.22;5080045;28;20211;-74
2021/09/11 06:45:15;;;;;;;8.20;6.53;;;;;;;20.47;100.00;98228.47;5077932;28;20325;-74
2021/09/11 06:47:41;;;;;;;8.27;6.43;;;;;;;20.53;100.00;98234.47;5080397;28;20243;-76
2021/09/11 06:50:08;;;;;;;8.82;6.93;;;;;;;20.58;100.00;98236.88;5093456;28;20196;-74
2021/09/11 06:52:35;;;;;;;9.50;7.10;;;;;;;20.72;100.00;98234.03;5094301;28;20209;-74
2021/09/11 06:55:01;;;;;;;7.80;6.25;;;;;;;20.69;100.00;98232.06;5093825;28;20327;-75
2021/09/11 06:57:28;;;;;;;10.00;6.85;;;;;;;20.79;100.00;98236.84;5093030;28;20613;-74
2021/09/11 06:59:54;;;;;;;7.90;6.22;;;;;;;20.70;100.00;98239.25;5094327;28;20204;-74
2021/09/11 07:02:21;;;;;;;8.13;6.72;;;;;;;20.72;100.00;98239.66;5094257;28;20297;-75
2021/09/11 07:04:48;;;;;;;7.53;6.07;;;;;;;20.77;100.00;98228.84;5089828;28;20570;-75
2021/09/11 07:07:14;;;;;;;8.70;6.63;;;;;;;20.69;100.00;98240.47;5073717;28;20764;-74
2021/09/11 07:09:41;;;;;;;7.85;5.95;;;;;;;20.68;100.00;98244.47;5073076;28;20209;-73
2021/09/11 07:12:07;;;;;;;7.70;6.50;;;;;;;20.54;100.00;98248.09;5072822;28;20299;-75
2021/09/11 07:14:34;;;;;;;6.70;6.03;;;;;;;20.66;100.00;98249.66;5073341;28;20236;-75
2021/09/11 07:17:00;;;;;;;8.68;6.13;;;;;;;20.56;100.00;98256.09;5073540;28;20590;-74
2021/09/11 07:19:29;;;;;;;6.60;5.90;;;;;;;20.55;100.00;98257.28;5072473;28;20209;-73
2021/09/11 07:21:56;;;;;;;9.02;6.45;;;;;;;20.46;100.00;98263.28;5073788;28;20696;-75
2021/09/11 07:24:23;;;;;;;7.78;6.05;;;;;;;20.57;100.00;98260.50;5056157;28;20308;-73
2021/09/11 07:26:49;;;;;;;7.78;6.65;;;;;;;20.48;100.00;98266.50;5073882;28;20222;-74
2021/09/11 07:29:16;;;;;;;8.05;6.40;;;;;;;20.61;100.00;98273.31;5085693;28;20753;-75
2021/09/11 07:31:43;;;;;;;10.40;7.07;;;;;;;20.65;100.00;98278.94;5094956;28;20700;-75
2021/09/11 07:34:09;;;;;;;9.40;7.43;;;;;;;20.45;100.00;98272.09;5075713;28;20315;-75
2021/09/11 07:36:37;;;;;;;8.75;7.35;;;;;;;20.38;100.00;98288.94;5093858;28;20649;-75
2021/09/11 07:39:04;;;;;;;11.30;7.53;;;;;;;20.49;100.00;98284.13;5093377;28;20282;-74
2021/09/11 07:41:30;;;;;;;10.23;6.82;;;;;;;20.46;100.00;98290.53;5093233;28;20287;-75
2021/09/11 07:43:58;;;;;;;9.38;6.53;;;;;;;20.48;100.00;98288.13;5092811;28;20288;-75
2021/09/11 07:46:24;;;;;;;8.93;6.53;;;;;;;20.32;100.00;98308.13;5093234;28;20295;-75
2021/09/11 07:48:51;;;;;;;9.75;6.78;;;;;;;20.31;100.00;98305.75;5093028;28;20752;-75
2021/09/11 07:51:19;;;;;;;8.27;6.70;;;;;;;20.43;100.00;98306.16;5093227;28;20216;-74
2021/09/11 07:53:45;;;;;;;9.73;7.22;;;;;;;20.55;100.00;98313.38;5092858;28;20242;-74
2021/09/11 07:56:12;;;;;;;9.20;6.63;;;;;;;20.45;100.00;98311.38;5092624;28;20204;-74
2021/09/11 07:58:38;;;;;;;7.85;6.25;;;;;;;20.37;100.00;98316.16;5092039;28;20204;-75
2021/09/11 08:01:05;;;;;;;9.90;6.25;;;;;;;20.33;100.00;98315.34;5093190;28;20215;-75
2021/09/11 08:03:32;;;;;;;8.18;5.68;;;;;;;20.32;100.00;98307.34;5092083;28;20983;-75
2021/09/11 08:05:59;;;;;;;8.30;6.10;;;;;;;20.38;100.00;98314.16;5078918;28;20201;-75
2021/09/11 08:08:25;;;;;;;8.10;5.90;;;;;;;20.34;100.00;98307.75;5072682;28;20308;-75
2021/09/11 08:10:52;;;;;;;6.97;5.45;;;;;;;20.06;100.00;98317.66;5072589;28;20223;-76
2021/09/11 08:13:19;;;;;;;11.70;5.85;;;;;;;20.33;100.00;98315.34;5072194;28;20217;-75
2021/09/11 08:15:45;;;;;;;8.00;5.22;;;;;;;20.39;100.00;98304.53;5070824;28;20728;-74
2021/09/11 08:18:16;;;;;;;7.72;5.18;;;;;;;20.45;100.00;98306.56;5071273;28;20291;-74
2021/09/11 08:20:42;;;;;;;5.70;4.30;;;;;;;20.45;100.00;98306.56;5072374;28;20215;-74
2021/09/11 08:23:09;;;;;;;7.05;4.78;;;;;;;20.44;100.00;98310.56;5072252;28;20201;-75
2021/09/11 08:25:36;;;;;;;8.65;4.57;;;;;;;20.47;100.00;98304.16;5071921;28;20307;-75
2021/09/11 08:28:02;;;;;;;6.53;4.90;;;;;;;20.57;100.00;98308.97;5074120;28;20769;-75
2021/09/11 08:30:29;;;;;;;5.15;4.18;;;;;;;20.60;100.00;98307.38;5092637;28;20211;-74
2021/09/11 08:32:55;;;;;;;6.22;4.18;;;;;;;20.66;100.00;98303.78;5092354;28;20275;-75
2021/09/11 08:35:22;;;;;;;6.40;4.75;;;;;;;20.70;100.00;98306.56;5090435;28;20228;-75
2021/09/11 08:37:48;;;;;;;5.20;4.43;;;;;;;20.75;100.00;98297.75;5092742;28;20222;-75
2021/09/11 08:40:15;;;;;;;7.80;4.40;;;;;;;20.78;100.00;98300.56;5092705;28;20204;-75
2021/09/11 08:42:42;;;;;;;7.65;4.32;;;;;;;20.90;100.00;98288.94;5091806;28;20669;-75
2021/09/11 08:45:14;;;;;;;5.95;4.32;;;;;;;20.89;100.00;98297.78;5093107;28;20284;-74
2021/09/11 08:47:42;;;;;;;4.93;4.32;;;;;;;20.90;100.00;98288.13;5096303;28;20304;-75
2021/09/11 08:50:10;;;;;;;5.93;4.55;;;;;;;20.99;100.00;98294.16;5093996;28;20211;-75
2021/09/11 08:52:36;;;;;;;5.82;4.78;;;;;;;21.04;100.00;98290.97;5093553;28;20206;-74
2021/09/11 08:55:04;;;;;;;5.40;3.88;;;;;;;21.12;100.00;98284.94;5092839;28;20224;-74
2021/09/11 08:57:30;;;;;;;8.13;4.28;;;;;;;21.27;100.00;98274.50;5093726;28;20211;-75
2021/09/11 08:59:57;;;;;;;8.23;4.10;;;;;;;21.38;100.00;98274.47;5092043;28;20209;-75
2021/09/11 09:02:24;;;;;;;5.57;4.28;;;;;;;21.46;100.00;98271.22;5092179;28;20291;-75
2021/09/11 09:04:53;;;;;;;5.25;3.83;;;;;;;21.58;100.00;98275.59;5086865;28;20217;-76
2021/09/11 09:07:34;;;;;;;4.65;3.85;;;;;;;21.73;100.00;98261.09;5075521;28;20209;-74
2021/09/11 09:10:04;;;;;;;6.50;3.88;;;;;;;21.99;100.00;98254.16;5081393;28;20205;-73
2021/09/11 09:12:36;;;;;;;5.07;3.15;;;;;;;22.24;100.00;98239.97;5075907;28;20633;-76
2021/09/11 09:15:11;;;;;;;5.60;2.85;;;;;;;22.58;100.00;98241.75;5070622;28;20358;-75
2021/09/11 09:17:38;;;;;;;4.55;3.22;;;;;;;22.82;100.00;98234.31;5071317;28;20204;-76
2021/09/11 09:20:14;;;;;;;4.43;3.72;;;;;;;22.96;100.00;98220.09;5071145;28;20552;-75
2021/09/11 09:22:45;;;;;;;4.53;3.30;;;;;;;23.11;100.00;98216.72;5071029;28;20375;-76
2021/09/11 09:25:23;;;;;;;4.35;3.28;;;;;;;23.17;100.00;98223.47;5070674;28;20248;-76
2021/09/11 09:27:55;;;;;;;4.30;3.50;;;;;;;23.23;100.00;98215.38;5071343;28;20207;-76
2021/09/11 09:30:33;;;;;;;5.53;4.25;;;;;;;23.73;100.00;98221.25;5071502;28;20209;-74
2021/09/11 09:32:59;;;;;;;5.15;3.67;;;;;;;24.19;100.00;98200.91;5079163;28;20299;-74
2021/09/11 09:35:27;;;;;;;4.35;3.60;;;;;;;25.06;100.00;98190.97;5090844;28;20232;-77
2021/09/11 09:37:59;;;;;;;5.18;3.50;;;;;;;24.92;100.00;98176.31;5094446;28;20228;-76
2021/09/11 09:40:45;;;;;;;4.35;3.70;;;;;;;24.32;100.00;98171.69;5094582;28;20644;-74
2021/09/11 09:43:29;;;;;;;4.57;2.88;;;;;;;24.38;100.00;98180.47;5093855;28;20212;-72
2021/09/11 09:46:13;;;;;;;3.80;3.15;;;;;;;24.63;100.00;98194.94;5091140;28;20642;-74
2021/09/11 09:48:42;;;;;;;6.13;3.53;;;;;;;24.62;100.00;98194.16;5090497;28;20249;-74
2021/09/11 09:51:13;;;;;;;4.10;3.55;;;;;;;24.74;100.00;98195.59;5090377;28;20205;-74
2021/09/11 09:53:42;;;;;;;3.95;3.25;;;;;;;25.34;100.00;98174.69;5088602;28;20311;-74
2021/09/11 09:56:09;;;;;;;3.58;3.03;;;;;;;25.48;100.00;98168.75;5093975;28;20262;-74
2021/09/11 09:58:36;;;;;;;4.45;3.13;;;;;;;26.86;100.00;98153.78;5093345;28;20206;-74
2021/09/11 10:01:03;;;;;;;3.28;2.13;;;;;;;26.86;100.00;98142.44;5094843;28;20220;-74
2021/09/11 10:03:31;;;;;;;3.45;2.05;;;;;;;25.91;100.00;98136.28;5094208;28;20223;-75
2021/09/11 10:06:07;;;;;;;2.92;2.42;;;;;;;25.38;100.00;98156.47;5081122;28;20204;-75
2021/09/11 10:08:45;;;;;;;3.42;2.75;;;;;;;24.91;100.00;98166.22;5079762;28;20236;-74
2021/09/11 10:11:12;;;;;;;4.28;3.08;;;;;;;24.56;100.00;98164.03;5086415;28;20401;-73
2021/09/11 10:13:56;;;;;;;4.25;3.40;;;;;;;25.26;100.00;98170.38;5077661;28;20220;-75
2021/09/11 10:16:30;;;;;;;6.10;4.60;;;;;;;26.37;100.00;98142.94;5073487;28;20233;-75
2021/09/11 10:18:56;;;;;;;4.15;3.70;;;;;;;27.36;100.00;98138.25;5073536;28;20702;-75
2021/09/11 10:21:40;;;;;;;6.43;4.45;;;;;;;27.39;100.00;98129.63;5073490;28;20300;-73
2021/09/11 10:24:06;;;;;;;7.00;4.57;;;;;;;27.23;100.00;98132.50;5072855;28;20312;-73
2021/09/11 10:26:47;;;;;;;6.10;4.25;;;;;;;26.82;100.00;98143.78;5072476;28;20284;-73
2021/09/11 10:29:32;;;;;;;4.35;3.60;;;;;;;26.67;100.00;98139.72;5083930;28;20212;-74
2021/09/11 10:32:06;;;;;;;5.50;3.90;;;;;;;27.17;100.00;98133.53;5093290;28;20208;-73
2021/09/11 10:34:54;;;;;;;5.63;4.65;;;;;;;26.63;100.00;98124.84;5072158;28;20267;-73
2021/09/11 10:37:58;;;;;;;4.95;4.05;;;;;;;26.85;100.00;98129.53;5073055;28;20209;-73
2021/09/11 10:40:34;;;;;;;5.57;4.25;;;;;;;26.30;100.00;98137.41;5072835;28;20230;-73
2021/09/11 10:43:09;;;;;;;4.97;4.40;;;;;;;26.21;100.00;98134.41;5071523;28;20296;-73
2021/09/11 10:45:42;;;;;;;6.05;4.95;;;;;;;25.81;100.00;98150.69;5071758;28;20251;-73
2021/09/11 10:48:31;;;;;;;6.15;5.22;;;;;;;25.80;100.00;98151.94;5092574;28;20201;-73
2021/09/11 10:51:09;;;;;;;6.38;5.32;;;;;;;26.34;100.00;98143.78;5072517;28;20201;-73
2021/09/11 10:53:36;;;;;;;7.72;5.65;;;;;;;26.02;100.00;98153.03;5071971;28;20216;-73
2021/09/11 10:56:23;;;;;;;7.70;5.65;;;;;;;26.34;100.00;98150.25;5075895;28;20355;-72
2021/09/11 10:59:14;;;;;;;6.55;5.07;;;;;;;27.11;100.00;98127.59;5093069;28;20212;-72
2021/09/11 11:01:53;;;;;;;8.88;5.85;;;;;;;26.38;100.00;98116.19;5093099;28;20216;-73
2021/09/11 11:04:29;;;;;;;7.10;5.25;;;;;;;26.56;100.00;98117.34;5092488;28;20250;-75
2021/09/11 11:06:58;;;;;;;7.70;5.32;;;;;;;26.84;100.00;98104.50;5091978;28;20923;-74
2021/09/11 11:09:25;;;;;;;6.40;5.18;;;;;;;26.51;100.00;98102.91;5092790;28;20204;-74
2021/09/11 11:11:54;;;;;;;6.18;4.85;;;;;;;26.42;100.00;98111.25;5094218;28;20227;-76
2021/09/11 11:14:22;;;;;;;5.43;4.88;;;;;;;25.92;100.00;98109.59;5093323;28;20231;-75
2021/09/11 11:16:51;;;;;;;6.03;5.07;;;;;;;25.64;100.00;98101.78;5093365;28;20243;-75
2021/09/11 11:19:23;;;;;;;5.53;4.80;;;;;;;25.93;100.00;98105.53;5092588;28;20222;-75
2021/09/11 11:22:02;;;;;;;5.28;4.53;;;;;;;26.57;100.00;98092.66;5092597;28;20669;-74
2021/09/11 11:24:35;;;;;;;6.13;4.90;;;;;;;26.78;100.00;98087.25;5090488;28;20247;-74
2021/09/11 11:27:16;;;;;;;5.72;4.78;;;;;;;26.56;100.00;98085.38;5096435;28;20254;-75
2021/09/11 11:29:44;;;;;;;6.15;4.82;;;;;;;25.99;100.00;98078.31;5091868;28;20295;-74
2021/09/11 11:32:10;;;;;;;6.25;4.72;;;;;;;25.71;100.00;98078.22;5091949;28;20203;-75
2021/09/11 11:34:38;;;;;;;5.45;4.40;;;;;;;25.45;100.00;98071.53;5091484;28;20225;-74
2021/09/11 11:37:10;;;;;;;8.55;4.60;;;;;;;25.94;100.00;98078.84;5089939;28;20324;-74
2021/09/11 11:39:39;;;;;;;6.40;4.95;;;;;;;26.42;100.00;98088.59;5091653;28;20755;-76
2021/09/11 11:42:12;;;;;;;6.97;5.38;;;;;;;26.37;100.00;98072.16;5091825;28;20268;-75
2021/09/11 11:44:47;;;;;;;5.10;4.60;;;;;;;26.10;100.00;98071.63;5090774;28;20312;-75
2021/09/11 11:47:28;;;;;;;4.65;4.20;;;;;;;26.12;100.00;98069.16;5091802;28;20225;-74
2021/09/11 11:49:55;;;;;;;5.45;4.70;;;;;;;26.15;100.00;98063.38;5091593;28;20253;-74
2021/09/11 11:52:24;;;;;;;5.60;5.00;;;;;;;26.36;100.00;98073.38;5091752;28;20740;-76
2021/09/11 11:54:53;;;;;;;6.38;4.53;;;;;;;26.29;100.00;98067.91;5090949;28;20242;-75
2021/09/11 11:57:21;;;;;;;5.68;4.53;;;;;;;26.29;100.00;98074.38;5091381;28;20610;-75
2021/09/11 12:00:18;;;;;;;6.57;4.65;;;;;;;25.68;100.00;98051.59;5089497;28;20591;-75
2021/09/11 12:02:47;;;;;;;6.07;4.50;;;;;;;25.94;100.00;98047.75;5086781;28;20208;-74
2021/09/11 12:05:26;;;;;;;6.35;4.97;;;;;;;26.37;100.00;98053.13;5083288;28;20220;-74